sensor_id;sensor_type;location;lat;lon;timestamp;temperature;humidity
27745;DHT22;61387;48.112;8.616;2023-02-28T00:12:18;-2.00;99.90
27745;DHT22;61387;48.112;8.616;2023-02-28T00:19:35;-1.90;99.90
27745;DHT22;61387;48.112;8.616;2023-02-28T00:34:11;-2.00;99.90
27745;DHT22;61387;48.112;8.616;2023-02-28T00:56:05;-1.90;99.90
27745;DHT22;61387;48.112;8.616;2023-02-28T01:30:10;-2.30;99.90
27745;DHT22;61387;48.112;8.616;2023-02-28T01:45:14;-2.40;99.90
27745;DHT22;61387;48.112;8.616;2023-02-28T01:47:42;-2.40;99.90
27745;DHT22;61387;48.112;8.616;2023-02-28T01:50:15;-2.40;99.90
27745;DHT22;61387;48.112;8.616;2023-02-28T01:55:08;-2.50;99.90
27745;DHT22;61387;48.112;8.616;2023-02-28T01:57:39;-2.50;99.90
27745;DHT22;61387;48.112;8.616;2023-02-28T02:00:26;-2.50;99.90
27745;DHT22;61387;48.112;8.616;2023-02-28T02:02:57;-2.50;99.90
27745;DHT22;61387;48.112;8.616;2023-02-28T02:05:27;-2.50;99.90
27745;DHT22;61387;48.112;8.616;2023-02-28T02:08:01;-2.60;99.90
27745;DHT22;61387;48.112;8.616;2023-02-28T02:10:44;-2.60;99.90
27745;DHT22;61387;48.112;8.616;2023-02-28T02:13:25;-2.60;99.90
27745;DHT22;61387;48.112;8.616;2023-02-28T02:19:07;-2.50;99.90
27745;DHT22;61387;48.112;8.616;2023-02-28T02:24:44;-2.50;99.90
27745;DHT22;61387;48.112;8.616;2023-02-28T02:27:38;-2.60;99.90
27745;DHT22;61387;48.112;8.616;2023-02-28T02:35:27;-2.70;99.90
27745;DHT22;61387;48.112;8.616;2023-02-28T02:38:14;-2.70;99.90
27745;DHT22;61387;48.112;8.616;2023-02-28T02:43:40;-2.80;99.90
27745;DHT22;61387;48.112;8.616;2023-02-28T02:46:14;-2.80;99.90
27745;DHT22;61387;48.112;8.616;2023-02-28T02:48:42;-2.90;99.90
27745;DHT22;61387;48.112;8.616;2023-02-28T02:51:16;-2.80;99.90
27745;DHT22;61387;48.112;8.616;2023-02-28T02:53:58;-2.90;99.90
27745;DHT22;61387;48.112;8.616;2023-02-28T02:56:28;-2.90;99.90
27745;DHT22;61387;48.112;8.616;2023-02-28T02:59:01;-2.90;99.90
27745;DHT22;61387;48.112;8.616;2023-02-28T03:01:29;-2.90;99.90
27745;DHT22;61387;48.112;8.616;2023-02-28T03:04:09;-3.00;99.90
27745;DHT22;61387;48.112;8.616;2023-02-28T03:06:35;-3.00;99.90
27745;DHT22;61387;48.112;8.616;2023-02-28T03:09:01;-2.90;99.90
27745;DHT22;61387;48.112;8.616;2023-02-28T03:11:27;-2.90;99.90
27745;DHT22;61387;48.112;8.616;2023-02-28T03:16:56;-3.00;99.90
27745;DHT22;61387;48.112;8.616;2023-02-28T03:25:13;-3.00;99.90
27745;DHT22;61387;48.112;8.616;2023-02-28T03:30:32;-3.00;99.90
27745;DHT22;61387;48.112;8.616;2023-02-28T03:33:11;-3.10;99.90
27745;DHT22;61387;48.112;8.616;2023-02-28T03:35:57;-3.10;99.90
27745;DHT22;61387;48.112;8.616;2023-02-28T03:41:16;-3.10;99.90
27745;DHT22;61387;48.112;8.616;2023-02-28T03:43:47;-3.10;99.90
27745;DHT22;61387;48.112;8.616;2023-02-28T03:46:18;-3.20;99.90
27745;DHT22;61387;48.112;8.616;2023-02-28T03:48:53;-3.20;99.90
27745;DHT22;61387;48.112;8.616;2023-02-28T03:51:22;-3.10;99.90
27745;DHT22;61387;48.112;8.616;2023-02-28T03:53:56;-3.20;99.90
27745;DHT22;61387;48.112;8.616;2023-02-28T03:57:00;-3.20;99.90
27745;DHT22;61387;48.112;8.616;2023-02-28T03:59:40;-3.20;99.90
27745;DHT22;61387;48.112;8.616;2023-02-28T04:02:07;-3.20;99.90
27745;DHT22;61387;48.112;8.616;2023-02-28T04:04:33;-3.30;99.90
27745;DHT22;61387;48.112;8.616;2023-02-28T04:07:08;-3.30;99.90
27745;DHT22;61387;48.112;8.616;2023-02-28T04:12:00;-3.30;99.90
27745;DHT22;61387;48.112;8.616;2023-02-28T04:21:48;-3.40;99.90
27745;DHT22;61387;48.112;8.616;2023-02-28T04:24:17;-3.40;99.90
27745;DHT22;61387;48.112;8.616;2023-02-28T04:26:46;-3.40;99.90
27745;DHT22;61387;48.112;8.616;2023-02-28T04:29:15;-3.40;99.90
27745;DHT22;61387;48.112;8.616;2023-02-28T04:31:43;-3.40;99.90
27745;DHT22;61387;48.112;8.616;2023-02-28T04:46:19;-3.50;99.90
27745;DHT22;61387;48.112;8.616;2023-02-28T04:51:13;-3.40;99.90
27745;DHT22;61387;48.112;8.616;2023-02-28T04:53:40;-3.50;99.90
27745;DHT22;61387;48.112;8.616;2023-02-28T04:56:07;-3.40;99.90
27745;DHT22;61387;48.112;8.616;2023-02-28T04:58:34;-1.10;99.90
27745;DHT22;61387;48.112;8.616;2023-02-28T05:01:16;-3.40;99.90
27745;DHT22;61387;48.112;8.616;2023-02-28T05:13:27;-3.50;99.90
27745;DHT22;61387;48.112;8.616;2023-02-28T05:15:53;-3.50;99.90
27745;DHT22;61387;48.112;8.616;2023-02-28T05:23:12;-3.50;99.90
27745;DHT22;61387;48.112;8.616;2023-02-28T05:35:25;-3.50;99.90
27745;DHT22;61387;48.112;8.616;2023-02-28T05:40:18;-3.40;99.90
27745;DHT22;61387;48.112;8.616;2023-02-28T05:50:04;-3.30;99.90
27745;DHT22;61387;48.112;8.616;2023-02-28T06:02:16;-3.40;99.90
27745;DHT22;61387;48.112;8.616;2023-02-28T06:04:42;-3.30;99.90
27745;DHT22;61387;48.112;8.616;2023-02-28T06:07:09;-3.30;99.90
27745;DHT22;61387;48.112;8.616;2023-02-28T06:09:35;-3.30;99.90
27745;DHT22;61387;48.112;8.616;2023-02-28T06:12:01;-3.30;99.90
27745;DHT22;61387;48.112;8.616;2023-02-28T06:14:32;-3.30;99.90
27745;DHT22;61387;48.112;8.616;2023-02-28T06:17:00;-3.40;99.90
27745;DHT22;61387;48.112;8.616;2023-02-28T06:21:53;-3.30;99.90
27745;DHT22;61387;48.112;8.616;2023-02-28T06:24:19;-3.30;99.90
27745;DHT22;61387;48.112;8.616;2023-02-28T06:41:24;-3.20;99.90
27745;DHT22;61387;48.112;8.616;2023-02-28T06:48:43;-3.10;99.90
27745;DHT22;61387;48.112;8.616;2023-02-28T06:51:12;-3.10;99.90
27745;DHT22;61387;48.112;8.616;2023-02-28T06:56:07;-3.10;99.90
27745;DHT22;61387;48.112;8.616;2023-02-28T06:58:33;-3.00;99.90
27745;DHT22;61387;48.112;8.616;2023-02-28T08:02:18;-2.50;99.90
27745;DHT22;61387;48.112;8.616;2023-02-28T08:04:44;-2.40;99.90
27745;DHT22;61387;48.112;8.616;2023-02-28T08:07:12;-2.30;99.90
27745;DHT22;61387;48.112;8.616;2023-02-28T08:09:39;-2.20;99.90
27745;DHT22;61387;48.112;8.616;2023-02-28T08:12:06;-2.20;99.90
27745;DHT22;61387;48.112;8.616;2023-02-28T08:14:32;-2.10;99.90
27745;DHT22;61387;48.112;8.616;2023-02-28T08:16:57;-2.10;99.90
27745;DHT22;61387;48.112;8.616;2023-02-28T08:19:23;-2.10;99.90
27745;DHT22;61387;48.112;8.616;2023-02-28T08:24:14;-2.00;99.90
27745;DHT22;61387;48.112;8.616;2023-02-28T08:26:40;-2.30;99.90
27745;DHT22;61387;48.112;8.616;2023-02-28T08:31:31;-1.80;99.90
27745;DHT22;61387;48.112;8.616;2023-02-28T08:36:25;-1.70;99.90
27745;DHT22;61387;48.112;8.616;2023-02-28T08:38:50;-1.70;99.90
27745;DHT22;61387;48.112;8.616;2023-02-28T08:41:16;-1.60;99.90
27745;DHT22;61387;48.112;8.616;2023-02-28T08:43:42;-1.60;99.90
27745;DHT22;61387;48.112;8.616;2023-02-28T08:46:08;-1.60;99.90
27745;DHT22;61387;48.112;8.616;2023-02-28T08:51:10;-1.60;99.90
27745;DHT22;61387;48.112;8.616;2023-02-28T08:53:37;-1.50;99.90
27745;DHT22;61387;48.112;8.616;2023-02-28T08:56:15;-1.40;99.90
27745;DHT22;61387;48.112;8.616;2023-02-28T08:58:42;-1.40;99.90
27745;DHT22;61387;48.112;8.616;2023-02-28T09:01:13;-1.30;99.90
27745;DHT22;61387;48.112;8.616;2023-02-28T09:03:39;-1.30;99.90
27745;DHT22;61387;48.112;8.616;2023-02-28T09:06:07;0.40;99.90
27745;DHT22;61387;48.112;8.616;2023-02-28T09:08:33;-1.20;99.90
27745;DHT22;61387;48.112;8.616;2023-02-28T09:10:58;-1.00;99.90
27745;DHT22;61387;48.112;8.616;2023-02-28T09:13:25;-0.90;99.90
27745;DHT22;61387;48.112;8.616;2023-02-28T09:20:44;-0.60;99.90
27745;DHT22;61387;48.112;8.616;2023-02-28T09:25:36;-0.40;99.90
27745;DHT22;61387;48.112;8.616;2023-02-28T09:28:02;-0.40;99.90
27745;DHT22;61387;48.112;8.616;2023-02-28T09:30:29;-0.60;99.90
27745;DHT22;61387;48.112;8.616;2023-02-28T09:32:54;-0.20;99.90
27745;DHT22;61387;48.112;8.616;2023-02-28T09:35:23;-0.20;99.90
27745;DHT22;61387;48.112;8.616;2023-02-28T09:37:51;-0.20;99.90
27745;DHT22;61387;48.112;8.616;2023-02-28T09:40:22;-0.20;99.90
27745;DHT22;61387;48.112;8.616;2023-02-28T09:42:51;-0.10;99.90
27745;DHT22;61387;48.112;8.616;2023-02-28T09:45:31;-0.20;99.90
27745;DHT22;61387;48.112;8.616;2023-02-28T09:48:21;-0.20;99.90
27745;DHT22;61387;48.112;8.616;2023-02-28T09:50:59;-0.20;99.90
27745;DHT22;61387;48.112;8.616;2023-02-28T09:53:29;-0.10;99.90
27745;DHT22;61387;48.112;8.616;2023-02-28T09:56:25;-0.30;99.90
27745;DHT22;61387;48.112;8.616;2023-02-28T10:01:39;-0.20;99.90
27745;DHT22;61387;48.112;8.616;2023-02-28T10:06:49;-0.80;99.90
27745;DHT22;61387;48.112;8.616;2023-02-28T10:09:29;-0.10;99.90
27745;DHT22;61387;48.112;8.616;2023-02-28T10:12:00;-0.10;99.90
27745;DHT22;61387;48.112;8.616;2023-02-28T10:14:29;0.00;99.90
27745;DHT22;61387;48.112;8.616;2023-02-28T10:17:10;0.20;99.90
27745;DHT22;61387;48.112;8.616;2023-02-28T10:19:47;0.30;99.90
27745;DHT22;61387;48.112;8.616;2023-02-28T10:24:47;0.30;99.90
27745;DHT22;61387;48.112;8.616;2023-02-28T10:27:20;0.30;99.90
27745;DHT22;61387;48.112;8.616;2023-02-28T10:32:47;0.30;99.90
27745;DHT22;61387;48.112;8.616;2023-02-28T10:35:25;0.20;99.90
27745;DHT22;61387;48.112;8.616;2023-02-28T10:37:54;0.30;99.90
27745;DHT22;61387;48.112;8.616;2023-02-28T10:45:22;0.50;99.90
27745;DHT22;61387;48.112;8.616;2023-02-28T10:48:01;0.50;99.90
27745;DHT22;61387;48.112;8.616;2023-02-28T10:50:39;0.50;99.90
27745;DHT22;61387;48.112;8.616;2023-02-28T10:56:14;0.50;99.90
27745;DHT22;61387;48.112;8.616;2023-02-28T11:01:39;0.30;99.90
27745;DHT22;61387;48.112;8.616;2023-02-28T11:07:22;0.40;99.90
27745;DHT22;61387;48.112;8.616;2023-02-28T11:09:52;0.40;99.90
27745;DHT22;61387;48.112;8.616;2023-02-28T11:15:03;0.30;99.90
27745;DHT22;61387;48.112;8.616;2023-02-28T11:17:33;0.30;99.90
27745;DHT22;61387;48.112;8.616;2023-02-28T11:20:07;0.20;99.90
27745;DHT22;61387;48.112;8.616;2023-02-28T11:22:44;0.40;99.90
27745;DHT22;61387;48.112;8.616;2023-02-28T11:25:26;0.40;99.90
27745;DHT22;61387;48.112;8.616;2023-02-28T11:27:59;0.40;99.90
27745;DHT22;61387;48.112;8.616;2023-02-28T11:30:38;0.60;99.90
27745;DHT22;61387;48.112;8.616;2023-02-28T11:35:49;1.00;99.90
27745;DHT22;61387;48.112;8.616;2023-02-28T11:38:15;1.00;99.90
27745;DHT22;61387;48.112;8.616;2023-02-28T11:46:36;0.80;99.90
27745;DHT22;61387;48.112;8.616;2023-02-28T11:49:32;0.70;99.90
27745;DHT22;61387;48.112;8.616;2023-02-28T11:54:54;0.70;99.90
27745;DHT22;61387;48.112;8.616;2023-02-28T12:05:58;0.80;99.90
27745;DHT22;61387;48.112;8.616;2023-02-28T12:17:13;1.10;99.90
27745;DHT22;61387;48.112;8.616;2023-02-28T12:20:00;0.90;99.90
27745;DHT22;61387;48.112;8.616;2023-02-28T12:22:37;1.20;99.90
27745;DHT22;61387;48.112;8.616;2023-02-28T12:27:34;1.00;99.90
27745;DHT22;61387;48.112;8.616;2023-02-28T12:32:43;1.10;99.90
27745;DHT22;61387;48.112;8.616;2023-02-28T12:37:46;1.20;99.90
27745;DHT22;61387;48.112;8.616;2023-02-28T12:40:21;1.30;99.90
27745;DHT22;61387;48.112;8.616;2023-02-28T12:42:55;1.20;99.90
27745;DHT22;61387;48.112;8.616;2023-02-28T12:45:24;1.10;99.90
27745;DHT22;61387;48.112;8.616;2023-02-28T12:47:57;1.10;99.90
27745;DHT22;61387;48.112;8.616;2023-02-28T12:50:26;1.10;99.90
27745;DHT22;61387;48.112;8.616;2023-02-28T12:55:47;1.10;99.90
27745;DHT22;61387;48.112;8.616;2023-02-28T12:58:28;1.10;99.90
27745;DHT22;61387;48.112;8.616;2023-02-28T13:01:22;1.10;99.90
27745;DHT22;61387;48.112;8.616;2023-02-28T13:06:52;1.40;99.90
27745;DHT22;61387;48.112;8.616;2023-02-28T13:09:22;1.40;99.90
27745;DHT22;61387;48.112;8.616;2023-02-28T13:11:48;1.50;99.90
27745;DHT22;61387;48.112;8.616;2023-02-28T13:14:34;1.40;99.90
27745;DHT22;61387;48.112;8.616;2023-02-28T13:19:37;1.70;99.90
27745;DHT22;61387;48.112;8.616;2023-02-28T13:22:03;1.90;99.90
27745;DHT22;61387;48.112;8.616;2023-02-28T13:24:45;2.20;99.90
27745;DHT22;61387;48.112;8.616;2023-02-28T13:27:22;2.20;99.90
27745;DHT22;61387;48.112;8.616;2023-02-28T13:29:52;2.40;99.90
27745;DHT22;61387;48.112;8.616;2023-02-28T13:32:34;2.50;99.90
27745;DHT22;61387;48.112;8.616;2023-02-28T13:37:42;2.80;99.90
27745;DHT22;61387;48.112;8.616;2023-02-28T13:40:31;2.80;99.90
27745;DHT22;61387;48.112;8.616;2023-02-28T13:43:02;2.40;99.90
27745;DHT22;61387;48.112;8.616;2023-02-28T13:45:28;2.60;99.90
27745;DHT22;61387;48.112;8.616;2023-02-28T13:48:18;2.50;99.90
27745;DHT22;61387;48.112;8.616;2023-02-28T13:50:45;2.70;99.90
27745;DHT22;61387;48.112;8.616;2023-02-28T13:56:18;2.70;99.90
27745;DHT22;61387;48.112;8.616;2023-02-28T13:58:56;2.50;99.90
27745;DHT22;61387;48.112;8.616;2023-02-28T14:01:48;2.10;99.90
27745;DHT22;61387;48.112;8.616;2023-02-28T14:04:47;1.90;99.90
27745;DHT22;61387;48.112;8.616;2023-02-28T14:07:23;1.70;99.90
27745;DHT22;61387;48.112;8.616;2023-02-28T14:10:03;1.70;99.90
27745;DHT22;61387;48.112;8.616;2023-02-28T14:13:12;1.70;99.90
27745;DHT22;61387;48.112;8.616;2023-02-28T14:18:30;1.90;99.90
27745;DHT22;61387;48.112;8.616;2023-02-28T14:21:21;2.00;99.90
27745;DHT22;61387;48.112;8.616;2023-02-28T14:24:27;2.00;99.90
27745;DHT22;61387;48.112;8.616;2023-02-28T14:27:29;2.00;99.90
27745;DHT22;61387;48.112;8.616;2023-02-28T14:33:03;2.30;99.90
27745;DHT22;61387;48.112;8.616;2023-02-28T14:35:47;2.30;99.90
27745;DHT22;61387;48.112;8.616;2023-02-28T14:38:22;2.30;99.90
27745;DHT22;61387;48.112;8.616;2023-02-28T14:40:51;2.10;99.90
27745;DHT22;61387;48.112;8.616;2023-02-28T14:43:23;2.30;99.90
27745;DHT22;61387;48.112;8.616;2023-02-28T14:46:00;2.60;99.90
27745;DHT22;61387;48.112;8.616;2023-02-28T14:48:26;2.60;99.90
27745;DHT22;61387;48.112;8.616;2023-02-28T14:50:57;2.50;99.90
27745;DHT22;61387;48.112;8.616;2023-02-28T14:53:26;2.50;99.90
27745;DHT22;61387;48.112;8.616;2023-02-28T14:58:29;2.30;99.90
27745;DHT22;61387;48.112;8.616;2023-02-28T15:00:57;2.20;99.90
27745;DHT22;61387;48.112;8.616;2023-02-28T15:06:00;2.30;99.90
27745;DHT22;61387;48.112;8.616;2023-02-28T15:08:28;2.20;99.90
27745;DHT22;61387;48.112;8.616;2023-02-28T15:11:13;2.20;99.90
27745;DHT22;61387;48.112;8.616;2023-02-28T15:16:35;2.40;99.90
27745;DHT22;61387;48.112;8.616;2023-02-28T15:19:30;2.60;99.90
27745;DHT22;61387;48.112;8.616;2023-02-28T15:22:18;2.60;99.90
27745;DHT22;61387;48.112;8.616;2023-02-28T15:24:50;2.70;99.90
27745;DHT22;61387;48.112;8.616;2023-02-28T15:27:22;2.70;99.90
27745;DHT22;61387;48.112;8.616;2023-02-28T15:29:53;2.70;99.90
27745;DHT22;61387;48.112;8.616;2023-02-28T15:32:31;2.80;99.90
27745;DHT22;61387;48.112;8.616;2023-02-28T15:34:59;2.80;99.90
27745;DHT22;61387;48.112;8.616;2023-02-28T15:37:45;2.80;99.90
27745;DHT22;61387;48.112;8.616;2023-02-28T15:42:43;3.00;99.90
27745;DHT22;61387;48.112;8.616;2023-02-28T15:45:33;2.90;99.90
27745;DHT22;61387;48.112;8.616;2023-02-28T15:50:28;2.90;99.90
27745;DHT22;61387;48.112;8.616;2023-02-28T15:55:24;2.80;99.90
27745;DHT22;61387;48.112;8.616;2023-02-28T15:57:53;2.80;99.90
27745;DHT22;61387;48.112;8.616;2023-02-28T16:00:23;2.80;99.90
27745;DHT22;61387;48.112;8.616;2023-02-28T16:02:49;2.80;99.90
27745;DHT22;61387;48.112;8.616;2023-02-28T16:07:56;2.70;99.90
27745;DHT22;61387;48.112;8.616;2023-02-28T16:10:24;2.70;99.90
27745;DHT22;61387;48.112;8.616;2023-02-28T16:12:53;2.80;99.90
27745;DHT22;61387;48.112;8.616;2023-02-28T16:15:25;2.90;99.90
27745;DHT22;61387;48.112;8.616;2023-02-28T16:17:52;3.10;99.90
27745;DHT22;61387;48.112;8.616;2023-02-28T16:20:21;3.10;99.90
27745;DHT22;61387;48.112;8.616;2023-02-28T16:22:46;3.00;99.90
27745;DHT22;61387;48.112;8.616;2023-02-28T16:25:14;3.20;99.90
27745;DHT22;61387;48.112;8.616;2023-02-28T16:30:07;3.20;99.90
27745;DHT22;61387;48.112;8.616;2023-02-28T16:32:36;3.10;99.90
27745;DHT22;61387;48.112;8.616;2023-02-28T16:37:28;3.00;99.90
27745;DHT22;61387;48.112;8.616;2023-02-28T16:39:53;3.00;99.90
27745;DHT22;61387;48.112;8.616;2023-02-28T16:42:27;3.00;99.90
27745;DHT22;61387;48.112;8.616;2023-02-28T16:44:54;2.80;99.90
27745;DHT22;61387;48.112;8.616;2023-02-28T16:47:20;2.80;99.90
27745;DHT22;61387;48.112;8.616;2023-02-28T16:49:46;2.60;99.90
27745;DHT22;61387;48.112;8.616;2023-02-28T16:52:13;2.50;99.90
27745;DHT22;61387;48.112;8.616;2023-02-28T16:54:40;2.40;99.90
27745;DHT22;61387;48.112;8.616;2023-02-28T16:59:32;2.00;99.90
27745;DHT22;61387;48.112;8.616;2023-02-28T17:01:58;1.80;99.90
27745;DHT22;61387;48.112;8.616;2023-02-28T17:04:27;1.60;99.90
27745;DHT22;61387;48.112;8.616;2023-02-28T17:06:53;1.40;99.90
27745;DHT22;61387;48.112;8.616;2023-02-28T17:09:23;1.30;99.90
27745;DHT22;61387;48.112;8.616;2023-02-28T17:11:48;1.20;99.90
27745;DHT22;61387;48.112;8.616;2023-02-28T17:14:14;1.10;99.90
27745;DHT22;61387;48.112;8.616;2023-02-28T17:19:11;0.60;99.90
27745;DHT22;61387;48.112;8.616;2023-02-28T17:21:37;0.60;99.90
27745;DHT22;61387;48.112;8.616;2023-02-28T17:24:03;0.50;99.90
27745;DHT22;61387;48.112;8.616;2023-02-28T17:26:28;0.30;99.90
27745;DHT22;61387;48.112;8.616;2023-02-28T17:28:55;0.30;99.90
27745;DHT22;61387;48.112;8.616;2023-02-28T17:31:23;0.20;99.90
27745;DHT22;61387;48.112;8.616;2023-02-28T17:33:48;0.10;99.90
27745;DHT22;61387;48.112;8.616;2023-02-28T17:36:16;0.00;99.90
27745;DHT22;61387;48.112;8.616;2023-02-28T17:38:43;0.00;99.90
27745;DHT22;61387;48.112;8.616;2023-02-28T17:41:10;-0.10;99.90
27745;DHT22;61387;48.112;8.616;2023-02-28T17:48:30;-0.40;99.90
27745;DHT22;61387;48.112;8.616;2023-02-28T17:50:56;-0.40;99.90
27745;DHT22;61387;48.112;8.616;2023-02-28T17:53:21;-0.50;99.90
27745;DHT22;61387;48.112;8.616;2023-02-28T17:58:14;-0.70;99.90
27745;DHT22;61387;48.112;8.616;2023-02-28T18:00:40;-0.80;99.90
27745;DHT22;61387;48.112;8.616;2023-02-28T18:03:06;-0.90;99.90
27745;DHT22;61387;48.112;8.616;2023-02-28T18:05:32;-1.00;99.90
27745;DHT22;61387;48.112;8.616;2023-02-28T18:07:57;-1.10;99.90
27745;DHT22;61387;48.112;8.616;2023-02-28T18:10:23;-1.10;99.90
27745;DHT22;61387;48.112;8.616;2023-02-28T18:12:50;-1.10;99.90
27745;DHT22;61387;48.112;8.616;2023-02-28T18:15:18;-1.20;99.90
27745;DHT22;61387;48.112;8.616;2023-02-28T18:17:47;-1.20;99.90
27745;DHT22;61387;48.112;8.616;2023-02-28T18:20:13;-1.20;99.90
27745;DHT22;61387;48.112;8.616;2023-02-28T18:22:40;-1.20;99.90
27745;DHT22;61387;48.112;8.616;2023-02-28T18:25:07;-1.20;99.90
27745;DHT22;61387;48.112;8.616;2023-02-28T18:27:34;-1.20;99.90
27745;DHT22;61387;48.112;8.616;2023-02-28T18:32:28;-1.40;99.90
27745;DHT22;61387;48.112;8.616;2023-02-28T18:34:53;-1.40;99.90
27745;DHT22;61387;48.112;8.616;2023-02-28T18:37:19;-1.40;99.90
27745;DHT22;61387;48.112;8.616;2023-02-28T18:44:37;-1.50;99.90
27745;DHT22;61387;48.112;8.616;2023-02-28T18:47:02;-1.60;99.90
27745;DHT22;61387;48.112;8.616;2023-02-28T18:49:30;-1.60;99.90
27745;DHT22;61387;48.112;8.616;2023-02-28T18:51:57;-1.70;99.90
27745;DHT22;61387;48.112;8.616;2023-02-28T18:54:23;-1.70;99.90
27745;DHT22;61387;48.112;8.616;2023-02-28T18:56:48;-1.70;99.90
27745;DHT22;61387;48.112;8.616;2023-02-28T18:59:15;-1.70;99.90
27745;DHT22;61387;48.112;8.616;2023-02-28T19:01:40;-1.80;99.90
27745;DHT22;61387;48.112;8.616;2023-02-28T19:04:06;-1.80;99.90
27745;DHT22;61387;48.112;8.616;2023-02-28T19:09:02;-1.90;99.90
27745;DHT22;61387;48.112;8.616;2023-02-28T19:16:21;-2.10;99.90
27745;DHT22;61387;48.112;8.616;2023-02-28T19:21:14;-2.10;99.90
27745;DHT22;61387;48.112;8.616;2023-02-28T19:26:09;-2.10;99.90
27745;DHT22;61387;48.112;8.616;2023-02-28T19:28:35;-2.20;99.90
27745;DHT22;61387;48.112;8.616;2023-02-28T19:33:27;-2.20;99.90
27745;DHT22;61387;48.112;8.616;2023-02-28T19:38:21;-2.30;99.90
27745;DHT22;61387;48.112;8.616;2023-02-28T19:40:47;-2.40;99.90
27745;DHT22;61387;48.112;8.616;2023-02-28T19:43:12;-2.40;99.90
27745;DHT22;61387;48.112;8.616;2023-02-28T19:45:38;-2.40;99.90
27745;DHT22;61387;48.112;8.616;2023-02-28T19:48:04;-2.50;99.90
27745;DHT22;61387;48.112;8.616;2023-02-28T19:52:56;-2.50;99.90
27745;DHT22;61387;48.112;8.616;2023-02-28T19:55:21;-2.50;99.90
27745;DHT22;61387;48.112;8.616;2023-02-28T20:00:14;-2.60;99.90
27745;DHT22;61387;48.112;8.616;2023-02-28T20:02:40;-2.60;99.90
27745;DHT22;61387;48.112;8.616;2023-02-28T20:05:07;-2.60;99.90
27745;DHT22;61387;48.112;8.616;2023-02-28T20:07:33;-2.60;99.90
27745;DHT22;61387;48.112;8.616;2023-02-28T20:17:18;-2.70;99.90
27745;DHT22;61387;48.112;8.616;2023-02-28T20:19:43;-2.80;99.90
27745;DHT22;61387;48.112;8.616;2023-02-28T20:22:09;-2.90;99.90
27745;DHT22;61387;48.112;8.616;2023-02-28T20:24:36;-2.90;99.90
27745;DHT22;61387;48.112;8.616;2023-02-28T20:27:02;-3.00;99.90
27745;DHT22;61387;48.112;8.616;2023-02-28T20:31:54;-3.00;99.90
27745;DHT22;61387;48.112;8.616;2023-02-28T20:34:21;-3.00;99.90
27745;DHT22;61387;48.112;8.616;2023-02-28T20:36:48;-3.00;99.90
27745;DHT22;61387;48.112;8.616;2023-02-28T20:39:13;-3.10;99.90
27745;DHT22;61387;48.112;8.616;2023-02-28T20:41:39;-3.10;99.90
27745;DHT22;61387;48.112;8.616;2023-02-28T20:46:31;-3.20;99.90
27745;DHT22;61387;48.112;8.616;2023-02-28T20:51:24;-3.20;99.90
27745;DHT22;61387;48.112;8.616;2023-02-28T20:53:50;-3.20;99.90
27745;DHT22;61387;48.112;8.616;2023-02-28T20:56:18;-3.20;99.90
27745;DHT22;61387;48.112;8.616;2023-02-28T20:58:45;-3.30;99.90
27745;DHT22;61387;48.112;8.616;2023-02-28T21:01:17;-3.30;99.90
27745;DHT22;61387;48.112;8.616;2023-02-28T21:03:44;-3.40;99.90
27745;DHT22;61387;48.112;8.616;2023-02-28T21:06:11;-3.40;99.90
27745;DHT22;61387;48.112;8.616;2023-02-28T21:08:37;-3.50;99.90
27745;DHT22;61387;48.112;8.616;2023-02-28T21:11:11;-3.50;99.90
27745;DHT22;61387;48.112;8.616;2023-02-28T21:13:37;-3.50;99.90
27745;DHT22;61387;48.112;8.616;2023-02-28T21:16:14;-3.50;99.90
27745;DHT22;61387;48.112;8.616;2023-02-28T21:18:40;-3.60;99.90
27745;DHT22;61387;48.112;8.616;2023-02-28T21:21:18;-3.60;99.90
27745;DHT22;61387;48.112;8.616;2023-02-28T21:23:44;-3.60;99.90
27745;DHT22;61387;48.112;8.616;2023-02-28T21:26:21;-3.60;99.90
27745;DHT22;61387;48.112;8.616;2023-02-28T21:28:58;-3.60;99.90
27745;DHT22;61387;48.112;8.616;2023-02-28T21:31:26;-3.60;99.90
27745;DHT22;61387;48.112;8.616;2023-02-28T21:33:53;-3.60;99.90
27745;DHT22;61387;48.112;8.616;2023-02-28T21:36:22;-3.50;99.90
27745;DHT22;61387;48.112;8.616;2023-02-28T21:38:53;-3.60;99.90
27745;DHT22;61387;48.112;8.616;2023-02-28T21:41:21;-3.60;99.90
27745;DHT22;61387;48.112;8.616;2023-02-28T21:43:47;-3.60;99.90
27745;DHT22;61387;48.112;8.616;2023-02-28T21:46:16;-3.70;99.90
27745;DHT22;61387;48.112;8.616;2023-02-28T21:51:11;-3.70;99.90
27745;DHT22;61387;48.112;8.616;2023-02-28T21:53:38;-3.80;99.90
27745;DHT22;61387;48.112;8.616;2023-02-28T21:56:07;-3.80;99.90
27745;DHT22;61387;48.112;8.616;2023-02-28T21:58:34;-3.80;99.90
27745;DHT22;61387;48.112;8.616;2023-02-28T22:01:04;-3.80;99.90
27745;DHT22;61387;48.112;8.616;2023-02-28T22:03:31;-3.80;99.90
27745;DHT22;61387;48.112;8.616;2023-02-28T22:05:56;-3.80;99.90
27745;DHT22;61387;48.112;8.616;2023-02-28T22:08:21;-3.70;99.90
27745;DHT22;61387;48.112;8.616;2023-02-28T22:10:47;-3.60;99.90
27745;DHT22;61387;48.112;8.616;2023-02-28T22:13:13;-3.50;99.90
27745;DHT22;61387;48.112;8.616;2023-02-28T22:15:38;-3.40;99.90
27745;DHT22;61387;48.112;8.616;2023-02-28T22:18:04;-3.30;99.90
27745;DHT22;61387;48.112;8.616;2023-02-28T22:20:30;-3.30;99.90
27745;DHT22;61387;48.112;8.616;2023-02-28T22:22:56;-3.30;99.90
27745;DHT22;61387;48.112;8.616;2023-02-28T22:25:21;-3.30;99.90
27745;DHT22;61387;48.112;8.616;2023-02-28T22:27:47;-3.30;99.90
27745;DHT22;61387;48.112;8.616;2023-02-28T22:30:13;-3.40;99.90
27745;DHT22;61387;48.112;8.616;2023-02-28T22:32:38;-3.40;99.90
27745;DHT22;61387;48.112;8.616;2023-02-28T22:35:05;-3.40;99.90
27745;DHT22;61387;48.112;8.616;2023-02-28T22:37:31;-3.40;99.90
27745;DHT22;61387;48.112;8.616;2023-02-28T22:39:56;-3.50;99.90
27745;DHT22;61387;48.112;8.616;2023-02-28T22:42:22;-3.50;99.90
27745;DHT22;61387;48.112;8.616;2023-02-28T22:44:51;-3.50;99.90
27745;DHT22;61387;48.112;8.616;2023-02-28T22:47:16;-3.50;99.90
27745;DHT22;61387;48.112;8.616;2023-02-28T22:49:42;-3.60;99.90
27745;DHT22;61387;48.112;8.616;2023-02-28T22:54:34;-3.70;99.90
27745;DHT22;61387;48.112;8.616;2023-02-28T22:57:00;-3.70;99.90
27745;DHT22;61387;48.112;8.616;2023-02-28T22:59:25;-3.70;99.90
27745;DHT22;61387;48.112;8.616;2023-02-28T23:01:51;-3.80;99.90
27745;DHT22;61387;48.112;8.616;2023-02-28T23:04:17;-3.90;99.90
27745;DHT22;61387;48.112;8.616;2023-02-28T23:06:43;-3.90;99.90
27745;DHT22;61387;48.112;8.616;2023-02-28T23:09:15;-3.90;99.90
27745;DHT22;61387;48.112;8.616;2023-02-28T23:11:47;-4.00;99.90
27745;DHT22;61387;48.112;8.616;2023-02-28T23:14:14;-4.00;99.90
27745;DHT22;61387;48.112;8.616;2023-02-28T23:16:43;-4.00;99.90
27745;DHT22;61387;48.112;8.616;2023-02-28T23:19:21;-4.10;99.90
27745;DHT22;61387;48.112;8.616;2023-02-28T23:21:47;-4.10;99.90
27745;DHT22;61387;48.112;8.616;2023-02-28T23:24:15;-4.10;99.90
27745;DHT22;61387;48.112;8.616;2023-02-28T23:26:44;-4.20;99.90
27745;DHT22;61387;48.112;8.616;2023-02-28T23:29:11;-4.20;99.90
27745;DHT22;61387;48.112;8.616;2023-02-28T23:31:37;-4.20;99.90
27745;DHT22;61387;48.112;8.616;2023-02-28T23:34:03;-4.30;99.90
27745;DHT22;61387;48.112;8.616;2023-02-28T23:36:28;-4.40;99.90